createdAt,value
2023-01-19T00:00:12.504Z,100
2023-01-19T00:01:12.743Z,100
2023-01-19T00:02:12.425Z,100
2023-01-19T00:03:12.463Z,100
2023-01-19T00:04:12.483Z,100
2023-01-19T00:05:12.456Z,100
2023-01-19T00:06:17.289Z,100
2023-01-19T00:07:12.435Z,100
2023-01-19T00:08:12.752Z,100
2023-01-19T00:09:12.448Z,100
2023-01-19T00:10:12.390Z,100
2023-01-19T00:11:12.757Z,100
2023-01-19T00:12:12.419Z,100
2023-01-19T00:13:12.388Z,100
2023-01-19T00:14:12.402Z,100
2023-01-19T00:15:12.369Z,100
2023-01-19T00:16:12.774Z,100
2023-01-19T00:17:14.886Z,100
2023-01-19T00:18:12.419Z,100
2023-01-19T00:19:12.429Z,100
2023-01-19T00:20:12.465Z,100
2023-01-19T00:21:12.739Z,100
2023-01-19T00:22:12.445Z,100
2023-01-19T00:23:12.758Z,100
2023-01-19T00:24:12.387Z,100
2023-01-19T00:25:12.494Z,100
2023-01-19T00:26:12.741Z,100
2023-01-19T00:27:12.471Z,100
2023-01-19T00:28:14.848Z,100
2023-01-19T00:29:12.412Z,100
2023-01-19T00:30:12.449Z,100
2023-01-19T00:31:12.838Z,100
2023-01-19T00:32:12.528Z,100
2023-01-19T00:33:12.473Z,100
2023-01-19T00:34:12.497Z,100
2023-01-19T00:35:12.532Z,100
2023-01-19T00:36:12.748Z,100
2023-01-19T00:37:12.495Z,100
2023-01-19T00:38:12.771Z,100
2023-01-19T00:39:14.825Z,100
2023-01-19T00:40:12.417Z,100
2023-01-19T00:41:12.753Z,100
2023-01-19T00:42:12.415Z,100
2023-01-19T00:43:12.404Z,100
2023-01-19T00:44:12.510Z,100
2023-01-19T00:45:12.460Z,100
2023-01-19T00:46:12.896Z,100
2023-01-19T00:47:12.473Z,100
2023-01-19T00:48:12.544Z,100
2023-01-19T00:49:12.413Z,100
2023-01-19T00:50:14.841Z,100
2023-01-19T00:51:12.758Z,100
2023-01-19T00:52:12.546Z,100
2023-01-19T00:53:12.770Z,100
2023-01-19T00:54:12.404Z,100
2023-01-19T00:55:12.548Z,100
2023-01-19T00:56:12.748Z,100
2023-01-19T00:57:12.514Z,100
2023-01-19T00:58:12.460Z,100
2023-01-19T00:59:12.477Z,100
2023-01-19T01:00:12.500Z,100
2023-01-19T01:01:17.360Z,100
2023-01-19T01:02:12.609Z,100
2023-01-19T01:03:12.653Z,100
2023-01-19T01:04:12.549Z,100
2023-01-19T01:05:12.395Z,100
2023-01-19T01:06:12.743Z,100
2023-01-19T01:07:12.510Z,100
2023-01-19T01:08:12.751Z,100
2023-01-19T01:09:12.400Z,100
2023-01-19T01:10:12.543Z,100
2023-01-19T01:11:12.754Z,100
2023-01-19T01:12:14.814Z,100
2023-01-19T01:13:20.571Z,100
2023-01-19T01:14:12.410Z,100
2023-01-19T01:15:12.583Z,100
2023-01-19T01:16:12.855Z,100
2023-01-19T01:17:12.550Z,100
2023-01-19T01:18:12.479Z,100
2023-01-19T01:19:12.507Z,100
2023-01-19T01:20:12.397Z,100
2023-01-19T01:21:12.756Z,100
2023-01-19T01:22:12.506Z,100
2023-01-19T01:23:17.207Z,100
2023-01-19T01:24:12.381Z,100
2023-01-19T01:25:12.419Z,100
2023-01-19T01:26:12.749Z,100
2023-01-19T01:27:12.458Z,100
2023-01-19T01:28:12.525Z,100
2023-01-19T01:29:12.516Z,100
2023-01-19T01:30:12.456Z,100
2023-01-19T01:31:12.794Z,100
2023-01-19T01:32:12.525Z,100
2023-01-19T01:33:12.428Z,100
2023-01-19T01:34:14.717Z,100
2023-01-19T01:35:12.439Z,100
2023-01-19T01:36:12.742Z,100
2023-01-19T01:37:12.519Z,100
2023-01-19T01:38:12.762Z,100
2023-01-19T01:39:12.506Z,100
2023-01-19T01:40:12.549Z,100
2023-01-19T01:41:12.746Z,100
2023-01-19T01:42:12.498Z,100
2023-01-19T01:43:12.483Z,100
2023-01-19T01:44:12.460Z,100
2023-01-19T01:45:14.748Z,100
2023-01-19T01:46:13.026Z,100
2023-01-19T01:47:12.481Z,100
2023-01-19T01:48:12.522Z,100
2023-01-19T01:49:12.429Z,100
2023-01-19T01:50:12.563Z,100
2023-01-19T01:51:12.759Z,100
2023-01-19T01:52:12.522Z,100
2023-01-19T01:53:12.936Z,100
2023-01-19T01:54:12.552Z,100
2023-01-19T01:55:12.426Z,100
2023-01-19T01:56:17.249Z,100
2023-01-19T01:57:12.521Z,100
2023-01-19T01:58:12.452Z,100
2023-01-19T01:59:12.387Z,100
2023-01-19T02:00:12.462Z,100
2023-01-19T02:01:12.843Z,100
2023-01-19T02:02:12.575Z,100
2023-01-19T02:03:12.518Z,100
2023-01-19T02:04:12.386Z,100
2023-01-19T02:05:12.535Z,100
2023-01-19T02:06:12.819Z,100
2023-01-19T02:07:14.852Z,100
2023-01-19T02:08:12.747Z,100
2023-01-19T02:09:12.397Z,100
2023-01-19T02:10:12.406Z,100
2023-01-19T02:11:12.755Z,100
2023-01-19T02:12:12.404Z,100
2023-01-19T02:13:12.535Z,100
2023-01-19T02:14:12.513Z,100
2023-01-19T02:15:12.409Z,100
2023-01-19T02:16:12.747Z,100
2023-01-19T02:17:12.409Z,100
2023-01-19T02:18:14.817Z,100
2023-01-19T02:19:12.446Z,100
2023-01-19T02:20:12.393Z,100
2023-01-19T02:21:12.765Z,100
2023-01-19T02:22:12.500Z,100
2023-01-19T02:23:12.743Z,100
2023-01-19T02:24:12.406Z,100
2023-01-19T02:25:12.533Z,100
2023-01-19T02:26:12.746Z,100
2023-01-19T02:27:12.441Z,100
2023-01-19T02:28:12.483Z,100
2023-01-19T02:29:14.826Z,100
2023-01-19T02:30:12.575Z,100
2023-01-19T02:31:12.749Z,100
2023-01-19T02:32:12.491Z,100
2023-01-19T02:33:12.516Z,100
2023-01-19T02:34:12.405Z,100
2023-01-19T02:35:12.530Z,100
2023-01-19T02:36:12.757Z,100
2023-01-19T02:37:12.546Z,100
2023-01-19T02:38:12.753Z,100
2023-01-19T02:39:12.529Z,100
2023-01-19T02:40:14.880Z,100
2023-01-19T02:41:12.757Z,100
2023-01-19T02:42:12.468Z,100
2023-01-19T02:43:12.391Z,100
2023-01-19T02:44:12.395Z,100
2023-01-19T02:45:12.536Z,100
2023-01-19T02:46:12.815Z,100
2023-01-19T02:47:12.402Z,100
2023-01-19T02:48:12.509Z,100
2023-01-19T02:49:12.392Z,100
2023-01-19T02:50:12.489Z,100
2023-01-19T02:51:17.169Z,100
2023-01-19T02:52:12.479Z,100
2023-01-19T02:53:12.753Z,100
2023-01-19T02:54:12.400Z,100
2023-01-19T02:55:12.538Z,100
2023-01-19T02:56:12.745Z,100
2023-01-19T02:57:12.416Z,100
2023-01-19T02:58:12.465Z,100
2023-01-19T02:59:12.521Z,100
2023-01-19T03:00:12.548Z,100
2023-01-19T03:01:13.010Z,100
2023-01-19T03:02:15.060Z,100
2023-01-19T03:03:12.520Z,100
2023-01-19T03:04:12.532Z,100
2023-01-19T03:05:12.527Z,100
2023-01-19T03:06:12.755Z,100
2023-01-19T03:07:12.477Z,100
2023-01-19T03:08:12.753Z,100
2023-01-19T03:09:12.435Z,100
2023-01-19T03:10:12.477Z,100
2023-01-19T03:11:12.776Z,100
2023-01-19T03:12:12.407Z,100
2023-01-19T03:13:14.776Z,100
2023-01-19T03:14:12.479Z,100
2023-01-19T03:15:12.456Z,100
2023-01-19T03:16:12.864Z,100
2023-01-19T03:17:12.425Z,100
2023-01-19T03:18:12.472Z,100
2023-01-19T03:19:12.466Z,100
2023-01-19T03:20:12.467Z,100
2023-01-19T03:21:12.747Z,100
2023-01-19T03:22:12.521Z,100
2023-01-19T03:23:12.754Z,100
2023-01-19T03:24:14.834Z,100
2023-01-19T03:25:12.439Z,100
2023-01-19T03:26:12.750Z,100
2023-01-19T03:27:12.523Z,100
2023-01-19T03:28:12.428Z,100
2023-01-19T03:29:12.466Z,100
2023-01-19T03:30:12.471Z,100
2023-01-19T03:31:12.834Z,100
2023-01-19T03:32:12.526Z,100
2023-01-19T03:33:12.532Z,100
2023-01-19T03:34:12.392Z,100
2023-01-19T03:35:14.721Z,100
2023-01-19T03:36:12.747Z,100
2023-01-19T03:37:12.484Z,100
2023-01-19T03:38:12.757Z,100
2023-01-19T03:39:12.499Z,100
2023-01-19T03:40:12.400Z,100
2023-01-19T03:41:12.755Z,100
2023-01-19T03:42:12.484Z,100
2023-01-19T03:43:12.463Z,100
2023-01-19T03:44:12.486Z,100
2023-01-19T03:45:12.417Z,100
2023-01-19T03:46:17.419Z,100
2023-01-19T03:47:12.563Z,100
2023-01-19T03:48:12.487Z,100
2023-01-19T03:49:12.426Z,100
2023-01-19T03:50:12.534Z,100
2023-01-19T03:51:13.482Z,100
2023-01-19T03:52:12.538Z,100
2023-01-19T03:53:12.778Z,100
2023-01-19T03:54:12.495Z,100
2023-01-19T03:55:12.521Z,100
2023-01-19T03:56:12.766Z,100
2023-01-19T03:57:14.801Z,100
2023-01-19T03:58:12.464Z,100
2023-01-19T03:59:12.417Z,100
2023-01-19T04:00:12.441Z,100
2023-01-19T04:01:13.045Z,100
2023-01-19T04:02:12.489Z,100
2023-01-19T04:03:12.535Z,100
2023-01-19T04:04:12.430Z,100
2023-01-19T04:05:12.526Z,100
2023-01-19T04:06:12.783Z,100
2023-01-19T04:07:12.516Z,100
2023-01-19T04:08:14.750Z,100
2023-01-19T04:09:12.501Z,100
2023-01-19T04:10:12.509Z,100
2023-01-19T04:11:12.780Z,100
2023-01-19T04:12:12.515Z,100
2023-01-19T04:13:12.452Z,100
2023-01-19T04:14:12.457Z,100
2023-01-19T04:15:12.456Z,100
2023-01-19T04:16:12.813Z,100
2023-01-19T04:17:12.473Z,100
2023-01-19T04:18:12.395Z,100
2023-01-19T04:19:14.809Z,100
2023-01-19T04:20:12.549Z,100
2023-01-19T04:21:12.766Z,100
2023-01-19T04:22:12.410Z,100
2023-01-19T04:23:12.531Z,100
2023-01-19T04:24:12.403Z,100
2023-01-19T04:25:12.524Z,100
2023-01-19T04:26:12.767Z,100
2023-01-19T04:27:12.431Z,100
2023-01-19T04:28:12.532Z,100
2023-01-19T04:29:12.494Z,100
2023-01-19T04:30:14.777Z,100
2023-01-19T04:31:12.847Z,100
2023-01-19T04:32:12.489Z,100
2023-01-19T04:33:12.463Z,100
2023-01-19T04:34:12.411Z,100
2023-01-19T04:35:12.429Z,100
2023-01-19T04:36:12.776Z,100
2023-01-19T04:37:12.422Z,100
2023-01-19T04:38:12.387Z,100
2023-01-19T04:39:12.366Z,100
2023-01-19T04:40:12.537Z,100
2023-01-19T04:41:17.561Z,100
2023-01-19T04:42:12.458Z,100
2023-01-19T04:43:12.422Z,100
2023-01-19T04:44:12.407Z,100
2023-01-19T04:45:12.400Z,100
2023-01-19T04:46:12.791Z,100
2023-01-19T04:47:12.620Z,100
2023-01-19T04:48:12.446Z,100
2023-01-19T04:49:12.524Z,100
2023-01-19T04:50:12.532Z,100
2023-01-19T04:51:12.756Z,100
2023-01-19T04:52:14.746Z,100
2023-01-19T04:53:12.499Z,100
2023-01-19T04:54:12.427Z,100
2023-01-19T04:55:12.511Z,100
2023-01-19T04:56:12.759Z,100
2023-01-19T04:57:12.531Z,100
2023-01-19T04:58:12.411Z,100
2023-01-19T04:59:12.500Z,100
2023-01-19T05:00:12.533Z,100
2023-01-19T05:01:12.884Z,100
2023-01-19T05:02:12.462Z,100
2023-01-19T05:03:14.855Z,100
2023-01-19T05:04:12.487Z,100
2023-01-19T05:05:12.540Z,100
2023-01-19T05:06:12.766Z,100
2023-01-19T05:07:12.416Z,100
2023-01-19T05:08:12.422Z,100
2023-01-19T05:09:12.501Z,100
2023-01-19T05:10:12.497Z,100
2023-01-19T05:11:12.780Z,100
2023-01-19T05:12:12.454Z,100
2023-01-19T05:13:12.472Z,100
2023-01-19T05:14:14.834Z,100
2023-01-19T05:15:12.499Z,100
2023-01-19T05:16:12.866Z,100
2023-01-19T05:17:12.468Z,100
2023-01-19T05:18:12.537Z,100
2023-01-19T05:19:12.422Z,100
2023-01-19T05:20:14.996Z,100
2023-01-19T05:21:21.209Z,100
2023-01-19T05:22:12.435Z,100
2023-01-19T05:23:12.535Z,100
2023-01-19T05:24:12.522Z,100
2023-01-19T05:25:14.758Z,100
2023-01-19T05:26:13.009Z,100
2023-01-19T05:27:12.387Z,100
2023-01-19T05:28:12.396Z,100
2023-01-19T05:29:12.529Z,100
2023-01-19T05:30:12.540Z,100
2023-01-19T05:31:12.863Z,100
2023-01-19T05:32:12.401Z,100
2023-01-19T05:33:12.497Z,100
2023-01-19T05:34:12.496Z,100
2023-01-19T05:35:12.541Z,100
2023-01-19T05:36:17.269Z,100
2023-01-19T05:37:12.530Z,100
2023-01-19T05:38:12.420Z,100
2023-01-19T05:39:12.470Z,100
2023-01-19T05:40:12.507Z,100
2023-01-19T05:41:12.772Z,100
2023-01-19T05:42:12.412Z,100
2023-01-19T05:43:12.505Z,100
2023-01-19T05:44:12.474Z,100
2023-01-19T05:45:12.437Z,100
2023-01-19T05:46:12.773Z,100
2023-01-19T05:47:14.773Z,100
2023-01-19T05:48:12.434Z,100
2023-01-19T05:49:12.447Z,100
2023-01-19T05:50:12.513Z,100
2023-01-19T05:51:12.766Z,100
2023-01-19T05:52:12.523Z,100
2023-01-19T05:53:12.399Z,100
2023-01-19T05:54:12.516Z,100
2023-01-19T05:55:12.423Z,100
2023-01-19T05:56:12.764Z,100
2023-01-19T05:57:12.503Z,100
2023-01-19T05:58:14.741Z,100
2023-01-19T05:59:12.426Z,100
2023-01-19T06:00:12.728Z,100
2023-01-19T06:01:12.482Z,100
2023-01-19T06:02:12.579Z,100
2023-01-19T06:03:12.577Z,100
2023-01-19T06:04:12.486Z,100
2023-01-19T06:05:12.543Z,100
2023-01-19T06:06:12.777Z,100
2023-01-19T06:07:12.434Z,99.861328125
2023-01-19T06:08:12.468Z,99.6376953125
2023-01-19T06:09:17.318Z,100
2023-01-19T06:10:12.376Z,99.841796875
2023-01-19T06:11:12.763Z,99.6630859375
2023-01-19T06:12:12.462Z,99.509765625
2023-01-19T06:13:12.461Z,99.7001953125
2023-01-19T06:14:12.495Z,99.26171875
2023-01-19T06:15:12.455Z,99.2197265625
2023-01-19T06:16:12.799Z,98.95703125
2023-01-19T06:17:12.466Z,98.6904296875
2023-01-19T06:18:12.453Z,98.9794921875
2023-01-19T06:19:12.420Z,98.9794921875
2023-01-19T06:20:14.858Z,99.2333984375
2023-01-19T06:21:12.982Z,99.431640625
2023-01-19T06:22:12.404Z,99.3505859375
2023-01-19T06:23:12.421Z,99.421875
2023-01-19T06:24:13.782Z,99.5654296875
2023-01-19T06:25:12.515Z,99.0947265625
2023-01-19T06:26:12.777Z,98.9580078125
2023-01-19T06:27:12.446Z,99.103515625
2023-01-19T06:28:12.417Z,99.470703125
2023-01-19T06:29:12.517Z,99.3212890625
2023-01-19T06:30:12.427Z,99.2958984375
2023-01-19T06:31:17.234Z,99.9921875
2023-01-19T06:32:12.468Z,99.7578125
2023-01-19T06:33:12.500Z,99.994140625
2023-01-19T06:34:12.394Z,100
2023-01-19T06:35:12.444Z,100
2023-01-19T06:36:12.482Z,100
2023-01-19T06:37:12.521Z,99.82421875
2023-01-19T06:38:12.514Z,99.7763671875
2023-01-19T06:39:12.430Z,99.6767578125
2023-01-19T06:40:13.662Z,99.6748046875
2023-01-19T06:41:12.493Z,99.705078125
2023-01-19T06:42:14.757Z,99.919921875
2023-01-19T06:43:12.522Z,99.9609375
2023-01-19T06:44:12.517Z,100
2023-01-19T06:45:12.547Z,99.9091796875
2023-01-19T06:46:12.823Z,99.875
2023-01-19T06:47:16.041Z,100
2023-01-19T06:48:12.402Z,100
2023-01-19T06:49:12.467Z,100
2023-01-19T06:50:12.410Z,100
2023-01-19T06:51:12.767Z,100
2023-01-19T06:52:12.526Z,100
2023-01-19T06:53:14.781Z,100
2023-01-19T06:54:12.496Z,100
2023-01-19T06:55:12.543Z,100
2023-01-19T06:56:12.765Z,100
2023-01-19T06:57:12.500Z,100
2023-01-19T06:58:12.439Z,100
2023-01-19T06:59:12.401Z,100
2023-01-19T07:00:12.483Z,100
2023-01-19T07:01:12.994Z,100
2023-01-19T07:02:27.977Z,100
2023-01-19T07:03:12.529Z,100
2023-01-19T07:04:14.832Z,100
2023-01-19T07:05:12.413Z,100
2023-01-19T07:06:12.769Z,100
2023-01-19T07:07:12.427Z,100
2023-01-19T07:08:12.529Z,100
2023-01-19T07:09:12.408Z,100
2023-01-19T07:10:12.407Z,100
2023-01-19T07:11:24.856Z,100
2023-01-19T07:12:12.460Z,100
2023-01-19T07:13:12.537Z,100
2023-01-19T07:14:12.533Z,100
2023-01-19T07:15:14.776Z,100
2023-01-19T07:16:12.771Z,100
2023-01-19T07:17:12.497Z,100
2023-01-19T07:18:12.507Z,100
2023-01-19T07:19:12.493Z,100
2023-01-19T07:20:12.523Z,100
2023-01-19T07:21:12.765Z,100
2023-01-19T07:22:12.494Z,100
2023-01-19T07:23:12.484Z,100
2023-01-19T07:24:12.378Z,100
2023-01-19T07:25:12.432Z,100
2023-01-19T07:26:17.253Z,100
2023-01-19T07:27:12.485Z,100
2023-01-19T07:28:12.413Z,100
2023-01-19T07:29:12.487Z,100
2023-01-19T07:30:12.408Z,100
2023-01-19T07:31:12.849Z,100
2023-01-19T07:32:12.473Z,100
2023-01-19T07:33:12.427Z,100
2023-01-19T07:34:12.643Z,100
2023-01-19T07:35:12.511Z,100
2023-01-19T07:36:12.757Z,100
2023-01-19T07:37:14.786Z,100
2023-01-19T07:38:12.388Z,100
2023-01-19T07:39:12.440Z,100
2023-01-19T07:40:12.520Z,100
2023-01-19T07:41:12.770Z,100
2023-01-19T07:42:12.527Z,100
2023-01-19T07:43:12.535Z,100
2023-01-19T07:44:12.500Z,100
2023-01-19T07:45:12.510Z,100
2023-01-19T07:46:12.852Z,100
2023-01-19T07:47:12.565Z,100
2023-01-19T07:48:14.800Z,100
2023-01-19T07:49:12.597Z,100
2023-01-19T07:50:12.409Z,100
2023-01-19T07:51:13.176Z,100
2023-01-19T07:52:12.501Z,100
2023-01-19T07:53:12.476Z,99.5556640625
2023-01-19T07:54:12.431Z,99.529296875
2023-01-19T07:55:12.478Z,99.318359375
2023-01-19T07:56:12.506Z,98.76171875
2023-01-19T07:57:12.521Z,98.380859375
2023-01-19T07:58:12.541Z,97.7919921875
2023-01-19T07:59:14.859Z,97.6337890625
2023-01-19T08:00:12.511Z,97.6201171875
2023-01-19T08:01:12.875Z,97.302734375
2023-01-19T08:02:12.632Z,97.2705078125
2023-01-19T08:03:12.481Z,97.0908203125
2023-01-19T08:04:12.565Z,97.2646484375
2023-01-19T08:05:12.475Z,97.71484375
2023-01-19T08:06:12.485Z,98.25
2023-01-19T08:07:12.472Z,98.775390625
2023-01-19T08:08:12.752Z,98.9033203125
2023-01-19T08:09:12.396Z,98.865234375
2023-01-19T08:10:14.887Z,98.98828125
2023-01-19T08:11:12.751Z,99.15625
2023-01-19T08:12:12.402Z,99.5224609375
2023-01-19T08:13:12.479Z,99.3857421875
2023-01-19T08:14:12.491Z,99.4765625
2023-01-19T08:15:12.404Z,99.5205078125
2023-01-19T08:16:12.775Z,99.6171875
2023-01-19T08:17:12.469Z,99.287109375
2023-01-19T08:18:12.493Z,99.15234375
2023-01-19T08:19:12.515Z,98.880859375
2023-01-19T08:20:12.487Z,98.8291015625
2023-01-19T08:21:17.243Z,98.78515625
2023-01-19T08:22:12.525Z,98.994140625
2023-01-19T08:23:12.752Z,98.5654296875
2023-01-19T08:24:12.467Z,98.544921875
2023-01-19T08:25:12.498Z,98.2294921875
2023-01-19T08:26:12.747Z,97.873046875
2023-01-19T08:27:12.534Z,97.7080078125
2023-01-19T08:28:12.470Z,97.8037109375
2023-01-19T08:29:12.413Z,97.9384765625
2023-01-19T08:30:12.458Z,97.7509765625
2023-01-19T08:31:20.404Z,97.5390625
2023-01-19T08:32:15.144Z,97.466796875
2023-01-19T08:33:12.453Z,97.470703125
2023-01-19T08:34:12.490Z,96.9267578125
2023-01-19T08:35:12.501Z,96.484375
2023-01-19T08:36:12.746Z,95.861328125
2023-01-19T08:37:12.468Z,95.4345703125
2023-01-19T08:38:12.756Z,95.4296875
2023-01-19T08:39:12.427Z,95.333984375
2023-01-19T08:40:12.511Z,95.0263671875
2023-01-19T08:41:12.755Z,95.04296875
2023-01-19T08:42:12.517Z,94.951171875
2023-01-19T08:43:14.760Z,94.51171875
2023-01-19T08:44:12.479Z,94.5791015625
2023-01-19T08:45:12.516Z,94.3115234375
2023-01-19T08:46:12.875Z,94.5908203125
2023-01-19T08:47:12.502Z,94.3623046875
2023-01-19T08:48:12.419Z,94.5322265625
2023-01-19T08:49:12.362Z,94.830078125
2023-01-19T08:50:12.518Z,94.6005859375
2023-01-19T08:51:12.757Z,94.4501953125
2023-01-19T08:52:12.527Z,94.544921875
2023-01-19T08:53:12.753Z,94.56640625
2023-01-19T08:54:15.080Z,93.9775390625
2023-01-19T08:55:12.460Z,93.95703125
2023-01-19T08:56:12.548Z,93.5302734375
2023-01-19T08:57:12.462Z,92.962890625
2023-01-19T08:58:12.476Z,92.6806640625
2023-01-19T08:59:14.083Z,92.6640625
2023-01-19T09:00:12.519Z,93.2607421875
2023-01-19T09:01:12.846Z,92.9140625
2023-01-19T09:02:12.517Z,92.919921875
2023-01-19T09:03:12.544Z,92.279296875
2023-01-19T09:04:12.533Z,91.5654296875
2023-01-19T09:05:14.705Z,91.1943359375
2023-01-19T09:06:12.751Z,90.8857421875
2023-01-19T09:07:12.484Z,90.4619140625
2023-01-19T09:08:12.760Z,89.9296875
2023-01-19T09:09:12.514Z,87.0537109375
2023-01-19T09:10:12.503Z,85.8857421875
2023-01-19T09:11:12.748Z,83.115234375
2023-01-19T09:12:12.527Z,82.78515625
2023-01-19T09:13:12.414Z,82.568359375
2023-01-19T09:14:12.457Z,83.1669921875
2023-01-19T09:15:12.481Z,83.7236328125
2023-01-19T09:16:17.241Z,84.0205078125
2023-01-19T09:17:12.467Z,84.359375
2023-01-19T09:18:12.404Z,84.7509765625
2023-01-19T09:19:12.509Z,85.0087890625
2023-01-19T09:20:12.408Z,85.185546875
2023-01-19T09:21:12.742Z,85.25390625
2023-01-19T09:22:12.603Z,85.6142578125
2023-01-19T09:23:12.772Z,86.041015625
2023-01-19T09:24:12.457Z,86.302734375
2023-01-19T09:25:12.448Z,86.47265625
2023-01-19T09:26:12.742Z,86.5302734375
2023-01-19T09:27:14.904Z,86.23046875
2023-01-19T09:28:12.410Z,84.6259765625
2023-01-19T09:29:12.512Z,83.693359375
2023-01-19T09:30:12.473Z,83.7783203125
2023-01-19T09:31:12.841Z,84.0458984375
2023-01-19T09:32:12.403Z,83.9619140625
2023-01-19T09:33:12.429Z,84.5859375
2023-01-19T09:34:12.488Z,84.9990234375
2023-01-19T09:35:12.421Z,85.1142578125
2023-01-19T09:36:12.747Z,85.0537109375
2023-01-19T09:37:12.405Z,84.6376953125
2023-01-19T09:38:17.175Z,84.9853515625
2023-01-19T09:39:12.532Z,85.1416015625
2023-01-19T09:40:12.483Z,84.8525390625
2023-01-19T09:41:12.747Z,84.8056640625
2023-01-19T09:42:12.543Z,84.5908203125
2023-01-19T09:43:12.537Z,84.505859375
2023-01-19T09:44:12.455Z,83.685546875
2023-01-19T09:45:12.564Z,83.384765625
2023-01-19T09:46:12.580Z,82.0751953125
2023-01-19T09:47:12.465Z,80.771484375
2023-01-19T09:48:12.477Z,78.9677734375
2023-01-19T09:49:14.826Z,77.884765625
2023-01-19T09:50:12.600Z,78.4306640625
2023-01-19T09:51:12.754Z,78.701171875
2023-01-19T09:52:12.443Z,78.51953125
2023-01-19T09:53:12.414Z,78.7041015625
2023-01-19T09:54:12.541Z,79.4384765625
2023-01-19T09:55:12.467Z,80.0283203125
2023-01-19T09:56:12.753Z,79.6220703125
2023-01-19T09:57:12.434Z,79.4755859375
2023-01-19T09:58:12.445Z,78.90625
2023-01-19T09:59:12.410Z,78.5048828125
2023-01-19T10:00:14.753Z,78.4794921875
2023-01-19T10:01:12.936Z,78.4599609375
2023-01-19T10:02:12.457Z,78.3818359375
2023-01-19T10:03:12.553Z,77.658203125
2023-01-19T10:04:12.487Z,76.6708984375
2023-01-19T10:05:12.541Z,76.1337890625
2023-01-19T10:06:12.384Z,75.400390625
2023-01-19T10:07:12.535Z,73.8447265625
2023-01-19T10:08:12.749Z,72.94140625
2023-01-19T10:09:12.510Z,71.4267578125
2023-01-19T10:10:12.483Z,70.140625
2023-01-19T10:11:17.654Z,67.796875
2023-01-19T10:12:12.471Z,67.40234375
2023-01-19T10:13:12.447Z,67.189453125
2023-01-19T10:14:12.478Z,66.53125
2023-01-19T10:15:12.524Z,66.09765625
2023-01-19T10:16:12.802Z,65.5927734375
2023-01-19T10:17:12.533Z,65.560546875
2023-01-19T10:18:12.421Z,65.328125
2023-01-19T10:19:12.463Z,64.912109375
2023-01-19T10:20:12.409Z,64.953125
2023-01-19T10:21:12.760Z,66.1611328125
2023-01-19T10:22:14.760Z,67.1005859375
2023-01-19T10:23:12.754Z,66.515625
2023-01-19T10:24:12.421Z,65.9326171875
2023-01-19T10:25:12.426Z,65.3642578125
2023-01-19T10:26:12.773Z,66.314453125
2023-01-19T10:27:12.454Z,68.0419921875
2023-01-19T10:28:12.407Z,68.919921875
2023-01-19T10:29:12.483Z,69.53515625
2023-01-19T10:30:12.490Z,69.4072265625
2023-01-19T10:31:12.551Z,69.6201171875
2023-01-19T10:32:12.564Z,70.7646484375
2023-01-19T10:33:14.838Z,72.1298828125
2023-01-19T10:34:12.464Z,73.3203125
2023-01-19T10:35:12.550Z,73.884765625
2023-01-19T10:36:12.777Z,75.3203125
2023-01-19T10:37:12.461Z,75.5986328125
2023-01-19T10:38:12.787Z,74.7509765625
2023-01-19T10:39:12.559Z,75.2431640625
2023-01-19T10:40:12.504Z,75.3759765625
2023-01-19T10:41:12.751Z,75.9755859375
2023-01-19T10:42:12.490Z,76.4609375
2023-01-19T10:43:12.516Z,77.5859375
2023-01-19T10:44:14.858Z,78.15625
2023-01-19T10:45:12.541Z,78.44921875
2023-01-19T10:46:12.809Z,78.3984375
2023-01-19T10:47:12.482Z,78.1962890625
2023-01-19T10:48:12.408Z,78.8564453125
2023-01-19T10:49:12.550Z,78.484375
2023-01-19T10:50:12.546Z,78.7392578125
2023-01-19T10:51:12.810Z,78.912109375
2023-01-19T10:52:12.568Z,79.0693359375
2023-01-19T10:53:12.751Z,79.181640625
2023-01-19T10:54:12.492Z,79.4599609375
2023-01-19T10:55:14.757Z,79.4013671875
2023-01-19T10:56:12.570Z,79.8134765625
2023-01-19T10:57:12.473Z,80.244140625
2023-01-19T10:58:12.457Z,80.490234375
2023-01-19T10:59:12.499Z,80.912109375
2023-01-19T11:00:12.459Z,80.8134765625
2023-01-19T11:01:12.876Z,81.177734375
2023-01-19T11:02:12.672Z,81.4326171875
2023-01-19T11:03:12.580Z,81.1650390625
2023-01-19T11:04:12.407Z,81.5556640625
2023-01-19T11:05:12.508Z,81.44140625
2023-01-19T11:06:17.161Z,81.6181640625
2023-01-19T11:07:12.457Z,82.18359375
2023-01-19T11:08:12.756Z,82.7802734375
2023-01-19T11:09:12.430Z,83.275390625
2023-01-19T11:10:12.435Z,84.353515625
2023-01-19T11:11:12.759Z,85.0341796875
2023-01-19T11:12:12.493Z,85.7294921875
2023-01-19T11:13:12.466Z,85.48828125
2023-01-19T11:14:12.501Z,85.7685546875
2023-01-19T11:15:12.420Z,85.84765625
2023-01-19T11:16:12.775Z,86.728515625
2023-01-19T11:17:14.813Z,87.248046875
2023-01-19T11:18:12.465Z,87.5654296875
2023-01-19T11:19:12.404Z,88.1904296875
2023-01-19T11:20:12.502Z,88.3056640625
2023-01-19T11:21:12.758Z,88.2890625
2023-01-19T11:22:12.413Z,88.6376953125
2023-01-19T11:23:12.755Z,88.99609375
2023-01-19T11:24:12.406Z,89.13671875
2023-01-19T11:25:12.529Z,89.3251953125
2023-01-19T11:26:12.744Z,88.6689453125
2023-01-19T11:27:12.517Z,88.0869140625
2023-01-19T11:28:14.844Z,87.5361328125
2023-01-19T11:29:12.394Z,86.66796875
2023-01-19T11:30:12.509Z,86.5595703125
2023-01-19T11:31:12.857Z,86.0234375
2023-01-19T11:32:12.412Z,86.548828125
2023-01-19T11:33:12.535Z,86.216796875
2023-01-19T11:34:12.370Z,85.890625
2023-01-19T11:35:12.437Z,86.0302734375
2023-01-19T11:36:12.755Z,85.810546875
2023-01-19T11:37:12.507Z,86.3818359375
2023-01-19T11:38:12.821Z,86.41796875
2023-01-19T11:39:14.742Z,85.9580078125
2023-01-19T11:40:14.321Z,85.111328125
2023-01-19T11:41:12.740Z,84.8681640625
2023-01-19T11:42:12.409Z,85.8935546875
2023-01-19T11:43:12.467Z,86.46484375
2023-01-19T11:44:12.451Z,86.6318359375
2023-01-19T11:45:12.464Z,85.7333984375
2023-01-19T11:46:12.758Z,85.640625
2023-01-19T11:47:12.551Z,85.720703125
2023-01-19T11:48:12.429Z,85.2333984375
2023-01-19T11:49:12.463Z,84.71484375
2023-01-19T11:50:14.812Z,85.17578125
2023-01-19T11:51:12.796Z,85.853515625
2023-01-19T11:52:12.527Z,86.201171875
2023-01-19T11:53:13.842Z,86.205078125
2023-01-19T11:54:12.545Z,86.443359375
2023-01-19T11:55:12.489Z,86.091796875
2023-01-19T11:56:12.752Z,86.328125
2023-01-19T11:57:12.437Z,86.2841796875
2023-01-19T11:58:12.537Z,85.9287109375
2023-01-19T11:59:12.426Z,85.6611328125
2023-01-19T12:00:12.519Z,86.1083984375
2023-01-19T12:01:17.308Z,86.888671875
2023-01-19T12:02:12.499Z,86.767578125
2023-01-19T12:03:12.474Z,87.265625
2023-01-19T12:04:12.539Z,87.671875
2023-01-19T12:05:12.396Z,88.1240234375
2023-01-19T12:06:12.463Z,87.8935546875
2023-01-19T12:07:12.468Z,88.015625
2023-01-19T12:08:12.395Z,88.2021484375
2023-01-19T12:09:12.763Z,88.7724609375
2023-01-19T12:10:12.424Z,88.974609375
2023-01-19T12:11:12.755Z,88.1240234375
2023-01-19T12:12:14.270Z,88.4970703125
2023-01-19T12:13:12.532Z,88.740234375